createdAt,value
2023-04-16T00:00:07.098Z,9.74
2023-04-16T00:02:42.977Z,9.68
2023-04-16T00:05:12.769Z,9.65
2023-04-16T00:07:45.012Z,9.65
2023-04-16T00:10:14.708Z,9.68
2023-04-16T00:12:44.343Z,9.81
2023-04-16T00:15:14.288Z,9.77
2023-04-16T00:17:44.019Z,9.54
2023-04-16T00:20:13.834Z,9.75
2023-04-16T00:22:46.084Z,9.55
2023-04-16T00:25:16.200Z,9.45
2023-04-16T00:27:45.892Z,9.79
2023-04-16T00:30:16.302Z,9.54
2023-04-16T00:32:46.383Z,9.84
2023-04-16T00:35:16.276Z,9.72
2023-04-16T00:37:48.638Z,9.70
2023-04-16T00:40:18.418Z,9.56
2023-04-16T00:42:48.510Z,9.88
2023-04-16T00:45:18.253Z,9.86
2023-04-16T00:47:48.272Z,9.52
2023-04-16T00:50:18.047Z,9.13
2023-04-16T00:52:51.875Z,9.56
2023-04-16T00:55:22.715Z,9.72
2023-04-16T00:57:52.374Z,10.00
2023-04-16T01:00:23.726Z,9.83
2023-04-16T01:02:53.599Z,9.74
2023-04-16T01:05:23.794Z,9.57
2023-04-16T01:07:56.492Z,9.69
2023-04-16T01:10:26.211Z,10.15
2023-04-16T01:12:56.055Z,9.96
2023-04-16T01:15:25.849Z,9.68
2023-04-16T01:17:55.646Z,10.03
2023-04-16T01:20:25.784Z,10.03
2023-04-16T01:22:58.234Z,10.24
2023-04-16T01:25:28.048Z,10.44
2023-04-16T01:27:59.340Z,9.96
2023-04-16T01:30:29.647Z,9.43
2023-04-16T01:33:21.702Z,9.77
2023-04-16T01:35:51.461Z,9.62
2023-04-16T01:38:23.741Z,9.63
2023-04-16T01:40:53.407Z,9.67
2023-04-16T01:43:23.046Z,9.72
2023-04-16T01:45:52.767Z,9.86
2023-04-16T01:48:22.411Z,9.69
2023-04-16T01:50:52.127Z,9.62
2023-04-16T01:53:24.327Z,9.70
2023-04-16T01:55:54.107Z,9.58
2023-04-16T01:58:23.776Z,9.77
2023-04-16T02:00:53.556Z,9.65
2023-04-16T02:03:24.965Z,9.61
2023-04-16T02:05:55.776Z,9.26
2023-04-16T02:08:28.252Z,9.43
2023-04-16T02:10:59.307Z,9.34
2023-04-16T02:13:29.790Z,9.27
2023-04-16T02:15:59.547Z,9.39
2023-04-16T02:19:04.910Z,9.23
2023-04-16T02:21:37.825Z,9.13
2023-04-16T02:24:11.363Z,9.05
2023-04-16T02:26:41.135Z,9.11
2023-04-16T02:29:17.433Z,8.98
2023-04-16T02:31:53.581Z,9.08
2023-04-16T02:34:23.841Z,9.18
2023-04-16T02:36:54.440Z,8.85
2023-04-16T02:39:27.330Z,9.36
2023-04-16T02:41:58.089Z,9.35
2023-04-16T02:44:27.862Z,9.60
2023-04-16T02:46:57.519Z,9.50
2023-04-16T02:49:27.151Z,9.50
2023-04-16T02:51:56.810Z,9.27
2023-04-16T02:54:29.201Z,9.05
2023-04-16T02:56:58.896Z,9.05
2023-04-16T02:59:28.640Z,9.03
2023-04-16T03:01:58.399Z,9.29
2023-04-16T03:04:28.154Z,8.74
2023-04-16T03:06:57.826Z,9.08
2023-04-16T03:09:30.082Z,9.12
2023-04-16T03:11:59.750Z,8.95
2023-04-16T03:14:29.394Z,8.98
2023-04-16T03:16:59.048Z,9.03
2023-04-16T03:19:28.888Z,8.94
2023-04-16T03:21:58.677Z,9.05
2023-04-16T03:24:30.990Z,9.12
2023-04-16T03:27:02.697Z,8.81
2023-04-16T03:29:32.536Z,8.80
2023-04-16T03:32:02.245Z,9.16
2023-04-16T03:34:32.039Z,9.32
2023-04-16T03:37:01.741Z,9.33
2023-04-16T03:39:33.954Z,9.64
2023-04-16T03:42:03.701Z,9.24
2023-04-16T03:44:33.385Z,9.01
2023-04-16T03:47:04.362Z,8.63
2023-04-16T03:49:34.073Z,8.74
2023-04-16T03:52:03.845Z,8.94
2023-04-16T03:54:36.179Z,8.87
2023-04-16T03:57:17.918Z,8.95
2023-04-16T03:59:48.294Z,8.70
2023-04-16T04:02:20.092Z,8.82
2023-04-16T04:04:50.487Z,9.01
2023-04-16T04:07:20.943Z,8.85
2023-04-16T04:09:53.194Z,8.81
2023-04-16T04:12:23.491Z,8.74
2023-04-16T04:14:53.301Z,8.64
2023-04-16T04:17:23.651Z,8.80
2023-04-16T04:20:01.391Z,8.84
2023-04-16T04:22:33.595Z,8.60
2023-04-16T04:25:05.969Z,8.60
2023-04-16T04:27:36.099Z,8.78
2023-04-16T04:30:06.562Z,8.39
2023-04-16T04:32:36.908Z,8.48
2023-04-16T04:35:06.968Z,8.45
2023-04-16T04:37:36.767Z,8.49
2023-04-16T04:40:17.648Z,8.67
2023-04-16T04:42:48.253Z,8.58
2023-04-16T04:45:18.571Z,8.55
2023-04-16T04:47:48.329Z,8.84
2023-04-16T04:50:18.745Z,8.57
2023-04-16T04:52:48.422Z,8.72
2023-04-16T04:55:20.998Z,8.68
2023-04-16T04:57:51.687Z,9.05
2023-04-16T05:00:22.366Z,8.88
2023-04-16T05:02:57.453Z,8.53
2023-04-16T05:05:27.232Z,8.35
2023-04-16T05:07:56.945Z,8.52
2023-04-16T05:10:29.499Z,8.58
2023-04-16T05:12:59.198Z,8.48
2023-04-16T05:15:28.956Z,8.60
2023-04-16T05:17:58.826Z,8.46
2023-04-16T05:20:28.541Z,8.69
2023-04-16T05:22:58.214Z,8.74
2023-04-16T05:25:30.469Z,8.69
2023-04-16T05:28:00.132Z,8.57
2023-04-16T05:30:29.815Z,8.28
2023-04-16T05:32:59.515Z,8.45
2023-04-16T05:35:29.234Z,8.52
2023-04-16T05:37:58.888Z,8.35
2023-04-16T05:40:31.169Z,8.60
2023-04-16T05:43:00.819Z,8.49
2023-04-16T05:45:31.413Z,8.61
2023-04-16T05:48:01.077Z,8.57
2023-04-16T05:50:30.770Z,8.33
2023-04-16T05:53:00.456Z,8.29
2023-04-16T05:55:32.689Z,8.07
2023-04-16T05:58:04.467Z,8.42
2023-04-16T06:00:34.321Z,8.19
2023-04-16T06:03:05.098Z,8.21
2023-04-16T06:05:35.007Z,8.05
2023-04-16T06:08:04.726Z,8.23
2023-04-16T06:10:37.000Z,8.04
2023-04-16T06:13:06.655Z,7.90
2023-04-16T06:15:36.295Z,7.95
2023-04-16T06:18:06.232Z,7.90
2023-04-16T06:20:36.473Z,7.80
2023-04-16T06:23:06.131Z,7.71
2023-04-16T06:25:38.451Z,7.72
2023-04-16T06:28:08.610Z,7.88
2023-04-16T06:30:38.338Z,7.92
2023-04-16T06:33:08.298Z,7.93
2023-04-16T06:35:38.008Z,8.04
2023-04-16T06:38:07.717Z,8.35
2023-04-16T06:40:40.147Z,7.84
2023-04-16T06:43:09.999Z,7.98
2023-04-16T06:45:39.711Z,8.00
2023-04-16T06:48:09.650Z,8.07
2023-04-16T06:50:39.299Z,8.50
2023-04-16T06:53:09.041Z,8.36
2023-04-16T06:55:41.243Z,8.16
2023-04-16T06:58:10.907Z,8.40
2023-04-16T07:00:40.696Z,8.43
2023-04-16T07:03:10.629Z,8.31
2023-04-16T07:05:40.570Z,8.28
2023-04-16T07:08:10.727Z,8.38
2023-04-16T07:10:43.377Z,8.21
2023-04-16T07:13:13.427Z,8.34
2023-04-16T07:15:43.083Z,8.21
2023-04-16T07:18:12.813Z,8.24
2023-04-16T07:20:42.568Z,8.18
2023-04-16T07:23:12.307Z,8.18
2023-04-16T07:25:44.721Z,8.23
2023-04-16T07:28:16.850Z,8.03
2023-04-16T07:30:46.704Z,8.04
2023-04-16T07:33:16.355Z,8.04
2023-04-16T07:35:46.000Z,8.19
2023-04-16T07:38:16.516Z,7.98
2023-04-16T07:40:48.842Z,7.94
2023-04-16T07:43:18.678Z,7.86
2023-04-16T07:45:48.578Z,8.09
2023-04-16T07:48:18.345Z,7.87
2023-04-16T07:50:48.013Z,8.15
2023-04-16T07:53:17.642Z,8.27
2023-04-16T07:55:49.917Z,8.35
2023-04-16T07:58:19.591Z,8.08
2023-04-16T08:00:50.856Z,8.17
2023-04-16T08:03:20.996Z,8.27
2023-04-16T08:05:50.897Z,8.06
2023-04-16T08:08:20.545Z,8.43
2023-04-16T08:10:55.965Z,8.32
2023-04-16T08:13:25.778Z,8.43
2023-04-16T08:15:55.427Z,8.47
2023-04-16T08:18:25.399Z,8.73
2023-04-16T08:20:55.114Z,8.64
2023-04-16T08:23:24.822Z,8.38
2023-04-16T08:25:57.460Z,8.34
2023-04-16T08:28:27.236Z,8.33
2023-04-16T08:30:57.005Z,8.16
2023-04-16T08:33:26.954Z,8.47
2023-04-16T08:35:56.677Z,8.57
2023-04-16T08:38:26.565Z,8.42
2023-04-16T08:41:01.516Z,8.40
2023-04-16T08:43:36.576Z,8.43
2023-04-16T08:46:08.205Z,8.43
2023-04-16T08:48:38.285Z,8.38
2023-04-16T08:51:12.627Z,8.27
2023-04-16T08:53:51.439Z,8.25
2023-04-16T08:56:25.984Z,8.36
2023-04-16T08:58:58.550Z,8.27
2023-04-16T09:01:29.462Z,8.17
2023-04-16T09:03:59.693Z,8.14
2023-04-16T09:06:31.586Z,8.07
2023-04-16T09:09:04.898Z,8.29
2023-04-16T09:11:37.713Z,8.11
2023-04-16T09:14:07.803Z,8.13
2023-04-16T09:16:38.374Z,8.07
2023-04-16T09:19:08.395Z,8.11
2023-04-16T09:21:39.212Z,8.41
2023-04-16T09:24:10.873Z,8.48
2023-04-16T09:26:44.340Z,8.62
2023-04-16T09:29:14.693Z,8.51
2023-04-16T09:31:44.560Z,8.55
2023-04-16T09:34:14.214Z,8.53
2023-04-16T09:36:43.945Z,8.52
2023-04-16T09:39:22.186Z,8.52
2023-04-16T09:41:56.392Z,8.38
2023-04-16T09:44:38.532Z,8.62
2023-04-16T09:47:10.586Z,8.55
2023-04-16T09:49:44.886Z,8.41
2023-04-16T09:52:16.791Z,8.18
2023-04-16T09:54:50.665Z,8.26
2023-04-16T09:57:27.902Z,8.20
2023-04-16T10:00:03.779Z,8.34
2023-04-16T10:02:34.946Z,8.47
2023-04-16T10:05:05.832Z,8.43
2023-04-16T10:07:38.350Z,8.61
2023-04-16T10:10:09.459Z,8.57
2023-04-16T10:12:41.915Z,8.67
2023-04-16T10:15:12.403Z,8.89
2023-04-16T10:17:42.250Z,9.06
2023-04-16T10:20:12.866Z,8.91
2023-04-16T10:22:42.601Z,8.85
2023-04-16T10:25:13.240Z,9.19
2023-04-16T10:27:46.934Z,8.84
2023-04-16T10:30:19.665Z,8.74
2023-04-16T10:32:49.794Z,8.88
2023-04-16T10:35:22.705Z,9.00
2023-04-16T10:37:52.353Z,9.13
2023-04-16T10:40:26.660Z,9.22
2023-04-16T10:43:02.889Z,9.22
2023-04-16T10:45:40.924Z,8.76
2023-04-16T10:48:12.031Z,8.73
2023-04-16T10:50:41.855Z,8.86
2023-04-16T10:53:22.095Z,8.64
2023-04-16T10:56:15.604Z,8.56
2023-04-16T10:58:47.822Z,8.55
2023-04-16T11:01:17.637Z,8.81
2023-04-16T11:03:50.433Z,8.76
2023-04-16T11:06:27.167Z,8.82
2023-04-16T11:08:57.372Z,8.69
2023-04-16T11:11:27.042Z,8.67
2023-04-16T11:14:00.482Z,8.74
2023-04-16T11:16:30.192Z,8.70
2023-04-16T11:19:00.229Z,8.65
2023-04-16T11:21:30.066Z,8.63
2023-04-16T11:24:00.724Z,8.80
2023-04-16T11:26:31.814Z,8.85
2023-04-16T11:29:05.023Z,8.88
2023-04-16T11:31:35.019Z,8.94
2023-04-16T11:34:05.017Z,8.91
2023-04-16T11:36:46.243Z,8.97
2023-04-16T11:39:16.191Z,8.94
2023-04-16T11:41:46.610Z,8.90
2023-04-16T11:44:28.140Z,8.83
2023-04-16T11:46:58.140Z,9.19
2023-04-16T11:49:30.963Z,9.20
2023-04-16T11:52:01.258Z,9.05
2023-04-16T11:54:34.920Z,8.80
2023-04-16T11:57:04.685Z,9.02
2023-04-16T11:59:37.307Z,8.88
2023-04-16T12:02:38.392Z,9.17
2023-04-16T12:05:10.315Z,9.08
2023-04-16T12:07:49.085Z,9.12
2023-04-16T12:10:18.747Z,9.02
2023-04-16T12:12:48.568Z,9.30
2023-04-16T12:15:21.135Z,9.28
2023-04-16T12:17:54.616Z,9.36
2023-04-16T12:20:24.521Z,9.04
2023-04-16T12:22:57.215Z,9.16
2023-04-16T12:25:27.555Z,9.15
2023-04-16T12:27:58.717Z,8.93
2023-04-16T12:30:31.482Z,8.60
2023-04-16T12:33:17.583Z,8.87
2023-04-16T12:35:47.824Z,8.65
2023-04-16T12:38:17.540Z,8.73
2023-04-16T12:40:47.246Z,8.76
2023-04-16T12:43:17.056Z,8.88
2023-04-16T12:45:49.599Z,8.75
2023-04-16T12:48:19.369Z,8.87
2023-04-16T12:50:49.088Z,9.01
2023-04-16T12:53:18.770Z,8.73
2023-04-16T12:55:48.470Z,9.28
2023-04-16T12:58:18.141Z,9.29
2023-04-16T13:00:50.733Z,9.29
2023-04-16T13:03:21.293Z,9.26
2023-04-16T13:05:51.496Z,9.63
2023-04-16T13:08:21.143Z,9.28
2023-04-16T13:10:51.108Z,9.45
2023-04-16T13:13:20.785Z,9.58
2023-04-16T13:15:53.084Z,9.76
2023-04-16T13:18:23.207Z,9.32
2023-04-16T13:20:52.909Z,9.17
2023-04-16T13:23:22.803Z,9.32
2023-04-16T13:25:52.490Z,9.64
2023-04-16T13:28:22.341Z,9.46
2023-04-16T13:30:55.106Z,9.60
2023-04-16T13:33:25.046Z,9.84
2023-04-16T13:35:54.871Z,9.82
2023-04-16T13:38:24.682Z,9.60
2023-04-16T13:40:54.348Z,9.42
2023-04-16T13:43:24.345Z,9.73
2023-04-16T13:45:56.604Z,9.57
2023-04-16T13:48:26.326Z,10.01
2023-04-16T13:50:56.196Z,9.66
2023-04-16T13:53:25.893Z,9.59
2023-04-16T13:55:55.620Z,9.66
2023-04-16T13:58:25.432Z,9.66
2023-04-16T14:00:57.840Z,9.70
2023-04-16T14:03:28.356Z,10.10
2023-04-16T14:05:58.230Z,9.65
2023-04-16T14:08:27.969Z,10.09
2023-04-16T14:10:58.526Z,9.86
2023-04-16T14:13:28.492Z,10.04
2023-04-16T14:16:00.872Z,9.86
2023-04-16T14:18:30.582Z,10.06
2023-04-16T14:21:02.276Z,10.15
2023-04-16T14:23:31.965Z,9.88
2023-04-16T14:26:01.812Z,10.01
2023-04-16T14:28:31.785Z,10.22
2023-04-16T14:31:04.115Z,9.99
2023-04-16T14:33:33.886Z,9.96
2023-04-16T14:36:03.732Z,10.03
2023-04-16T14:38:33.670Z,10.28
2023-04-16T14:41:03.351Z,10.24
2023-04-16T14:43:33.097Z,10.25
2023-04-16T14:46:06.651Z,9.98
2023-04-16T14:48:36.553Z,10.03
2023-04-16T14:51:07.354Z,9.96
2023-04-16T14:53:37.244Z,10.16
2023-04-16T14:56:07.940Z,10.10
2023-04-16T14:58:39.435Z,10.30
2023-04-16T15:01:13.809Z,10.43
2023-04-16T15:03:44.306Z,10.39
2023-04-16T15:06:14.724Z,10.43
2023-04-16T15:08:44.462Z,10.52
2023-04-16T15:11:14.126Z,10.49
2023-04-16T15:13:43.812Z,10.51
2023-04-16T15:16:16.139Z,10.52
2023-04-16T15:18:45.981Z,10.16
2023-04-16T15:21:15.773Z,10.40
2023-04-16T15:23:45.672Z,10.46
2023-04-16T15:26:15.548Z,10.41
2023-04-16T15:28:45.240Z,10.35
2023-04-16T15:31:17.580Z,10.30
2023-04-16T15:33:47.380Z,10.46
2023-04-16T15:36:17.137Z,10.55
2023-04-16T15:38:46.756Z,10.47
2023-04-16T15:41:16.491Z,10.23
2023-04-16T15:43:46.441Z,10.11
2023-04-16T15:46:18.909Z,10.12
2023-04-16T15:48:48.605Z,10.59
2023-04-16T15:51:18.580Z,10.28
2023-04-16T15:53:49.630Z,10.49
2023-04-16T15:56:19.798Z,10.48
2023-04-16T15:58:49.435Z,10.71
2023-04-16T16:01:22.581Z,10.47
2023-04-16T16:03:52.579Z,10.63
2023-04-16T16:06:22.790Z,10.79
2023-04-16T16:08:52.628Z,10.82
2023-04-16T16:11:22.414Z,10.79
2023-04-16T16:13:52.142Z,10.50
2023-04-16T16:16:24.589Z,10.74
2023-04-16T16:18:54.283Z,10.63
2023-04-16T16:21:24.151Z,10.50
2023-04-16T16:23:53.829Z,10.61
2023-04-16T16:26:23.534Z,10.46
2023-04-16T16:28:53.434Z,10.35
2023-04-16T16:31:28.477Z,10.45
2023-04-16T16:33:58.262Z,10.29
2023-04-16T16:36:28.223Z,10.38
2023-04-16T16:38:58.139Z,10.50
2023-04-16T16:41:27.904Z,10.63
2023-04-16T16:43:58.956Z,10.73
2023-04-16T16:46:31.247Z,10.74
2023-04-16T16:49:01.110Z,10.87
2023-04-16T16:51:31.197Z,10.97
2023-04-16T16:54:00.847Z,11.08
2023-04-16T16:56:30.812Z,10.99
2023-04-16T16:59:00.523Z,10.82
2023-04-16T17:01:33.174Z,10.49
2023-04-16T17:04:03.057Z,10.84
2023-04-16T17:06:33.570Z,10.89
2023-04-16T17:09:03.353Z,10.78
2023-04-16T17:11:33.077Z,10.98
2023-04-16T17:14:02.814Z,10.75
2023-04-16T17:16:35.145Z,10.92
2023-04-16T17:19:05.056Z,10.53
2023-04-16T17:21:35.296Z,10.70
2023-04-16T17:24:04.956Z,10.89
2023-04-16T17:26:34.838Z,10.59
2023-04-16T17:29:04.712Z,10.69
2023-04-16T17:31:36.996Z,10.87
2023-04-16T17:34:06.832Z,10.69
2023-04-16T17:36:37.028Z,10.91
2023-04-16T17:39:06.710Z,10.70
2023-04-16T17:41:36.360Z,10.74
2023-04-16T17:44:06.205Z,9.88
2023-04-16T17:46:38.513Z,9.79
2023-04-16T17:49:08.538Z,10.02
2023-04-16T17:51:38.207Z,10.12
2023-04-16T17:54:08.066Z,9.89
2023-04-16T17:56:38.117Z,9.84
2023-04-16T17:59:08.016Z,10.03
2023-04-16T18:01:41.073Z,9.76
2023-04-16T18:04:11.110Z,9.75
2023-04-16T18:06:41.177Z,9.72
2023-04-16T18:09:10.820Z,9.85
2023-04-16T18:11:40.541Z,9.79
2023-04-16T18:14:11.775Z,9.76
2023-04-16T18:16:44.627Z,9.82
2023-04-16T18:19:14.528Z,9.81
2023-04-16T18:21:44.292Z,9.85
2023-04-16T18:24:15.307Z,9.68
2023-04-16T18:26:47.071Z,9.89
2023-04-16T18:29:18.098Z,10.04
2023-04-16T18:31:50.727Z,10.69
2023-04-16T18:34:20.878Z,10.93
2023-04-16T18:36:51.372Z,11.14
2023-04-16T18:39:21.174Z,11.27
2023-04-16T18:41:51.032Z,10.68
2023-04-16T18:44:20.911Z,10.34
2023-04-16T18:46:53.201Z,10.71
2023-04-16T18:49:23.036Z,10.90
2023-04-16T18:51:55.869Z,10.54
2023-04-16T18:54:25.930Z,10.90
2023-04-16T18:56:57.330Z,10.71
2023-04-16T18:59:28.027Z,10.63
2023-04-16T19:02:00.306Z,10.80
2023-04-16T19:04:29.995Z,10.69
2023-04-16T19:06:59.758Z,10.76
2023-04-16T19:09:29.417Z,10.97
2023-04-16T19:11:59.049Z,10.97
2023-04-16T19:14:28.669Z,10.82
2023-04-16T19:17:01.002Z,10.85
2023-04-16T19:19:30.764Z,10.75
2023-04-16T19:22:00.527Z,10.86
2023-04-16T19:24:30.894Z,10.59
2023-04-16T19:27:02.786Z,10.57
2023-04-16T19:29:35.774Z,10.32
2023-04-16T19:32:08.432Z,10.99
2023-04-16T19:34:38.169Z,10.80
2023-04-16T19:37:07.862Z,10.78
2023-04-16T19:39:37.572Z,10.99
2023-04-16T19:42:07.355Z,10.69
2023-04-16T19:44:37.153Z,9.94
2023-04-16T19:47:09.684Z,9.82
2023-04-16T19:49:39.435Z,10.58
2023-04-16T19:52:09.135Z,10.09
2023-04-16T19:54:38.806Z,10.31
2023-04-16T19:57:08.524Z,10.12
2023-04-16T19:59:38.440Z,10.27
2023-04-16T20:02:10.878Z,10.51
2023-04-16T20:04:40.551Z,10.46
2023-04-16T20:07:10.248Z,10.21
2023-04-16T20:09:39.896Z,10.55
2023-04-16T20:12:09.914Z,10.56
2023-04-16T20:14:39.638Z,10.11
2023-04-16T20:17:12.034Z,10.25
2023-04-16T20:19:41.796Z,10.27
2023-04-16T20:22:11.502Z,10.59
2023-04-16T20:24:41.712Z,10.08
2023-04-16T20:27:11.492Z,10.21
2023-04-16T20:29:41.178Z,9.97
2023-04-16T20:32:13.406Z,10.09
2023-04-16T20:34:43.067Z,10.15
2023-04-16T20:37:12.732Z,10.11
2023-04-16T20:39:42.370Z,10.16
2023-04-16T20:42:12.291Z,10.35
2023-04-16T20:44:42.971Z,10.71
2023-04-16T20:47:17.110Z,9.98
2023-04-16T20:49:47.626Z,10.00
2023-04-16T20:52:17.689Z,10.16
2023-04-16T20:54:47.873Z,10.04
2023-04-16T20:57:17.515Z,9.97
2023-04-16T20:59:47.580Z,10.19
2023-04-16T21:02:20.411Z,10.23
2023-04-16T21:04:50.548Z,10.34
2023-04-16T21:07:20.281Z,10.29
2023-04-16T21:09:49.961Z,10.18
2023-04-16T21:12:19.670Z,10.45
2023-04-16T21:14:49.336Z,10.44
2023-04-16T21:17:22.702Z,10.18
2023-04-16T21:19:52.531Z,10.27
2023-04-16T21:22:22.273Z,10.37
2023-04-16T21:24:52.006Z,10.50
2023-04-16T21:27:21.654Z,10.33
2023-04-16T21:29:52.022Z,10.57
2023-04-16T21:32:24.358Z,10.93
2023-04-16T21:34:54.098Z,10.48
2023-04-16T21:37:23.893Z,10.46
2023-04-16T21:39:53.527Z,10.58
2023-04-16T21:42:23.233Z,10.51
2023-04-16T21:44:53.006Z,10.53
2023-04-16T21:47:25.384Z,10.15
2023-04-16T21:49:55.173Z,10.10
2023-04-16T21:52:25.318Z,10.43
2023-04-16T21:54:55.022Z,10.39
2023-04-16T21:57:24.647Z,10.51
2023-04-16T21:59:54.293Z,10.47
2023-04-16T22:02:27.452Z,10.32
2023-04-16T22:04:57.290Z,10.51
2023-04-16T22:07:27.415Z,10.75
2023-04-16T22:09:57.207Z,10.44
2023-04-16T22:12:26.900Z,10.85
2023-04-16T22:15:02.458Z,10.29
2023-04-16T22:17:36.242Z,10.24
2023-04-16T22:20:11.664Z,10.52
2023-04-16T22:22:41.862Z,10.90
2023-04-16T22:25:12.495Z,10.57
2023-04-16T22:27:42.173Z,10.35
2023-04-16T22:30:13.399Z,10.26
2023-04-16T22:32:45.630Z,10.71
2023-04-16T22:35:15.708Z,10.65
2023-04-16T22:37:45.701Z,10.75
2023-04-16T22:40:16.091Z,10.39
2023-04-16T22:42:45.736Z,10.68
2023-04-16T22:45:15.487Z,10.66
2023-04-16T22:47:47.758Z,10.96
2023-04-16T22:50:17.678Z,10.74
2023-04-16T22:52:47.305Z,10.19
2023-04-16T22:55:16.940Z,10.25
2023-04-16T22:57:47.647Z,10.23
2023-04-16T23:00:18.422Z,10.07
2023-04-16T23:02:50.756Z,10.14
2023-04-16T23:05:20.508Z,10.34
2023-04-16T23:07:50.207Z,10.15
2023-04-16T23:10:20.156Z,10.46
2023-04-16T23:12:49.786Z,10.40
2023-04-16T23:15:19.542Z,10.68
2023-04-16T23:17:52.289Z,10.33
2023-04-16T23:20:22.141Z,10.10
2023-04-16T23:22:52.935Z,9.67
2023-04-16T23:25:23.751Z,10.14
2023-04-16T23:27:53.429Z,10.04
2023-04-16T23:30:23.329Z,10.15
2023-04-16T23:32:55.580Z,9.77
2023-04-16T23:35:25.561Z,9.81
2023-04-16T23:37:55.189Z,9.44
2023-04-16T23:40:24.826Z,9.46
2023-04-16T23:42:54.531Z,9.31
2023-04-16T23:45:24.313Z,9.56
2023-04-16T23:47:56.621Z,9.39
2023-04-16T23:50:26.250Z,8.83
2023-04-16T23:52:55.890Z,8.65
2023-04-16T23:55:25.870Z,9.00
2023-04-16T23:57:55.484Z,8.76
